Time;durP1;ratioP1;P1;durP2;ratioP2;P2;SDS_P1;SDS_P2;PMS_P1;PMS_P2;Temp;Humidity;BMP_temperature;BMP_pressure;BME280_temperature;BME280_humidity;BME280_pressure;Samples;Min_cycle;Max_cycle;Signal;HPM_P1;HPM_P2
2022/07/30 00:01:10;;;;;;;5.00;4.60;;;;;;;18.97;80.62;98104.56;5053109;28;20208;-70
2022/07/30 00:03:37;;;;;;;6.40;4.73;;;;;;;18.83;82.08;98108.88;5052849;28;20694;-71
2022/07/30 00:06:04;;;;;;;5.30;4.70;;;;;;;18.77;82.46;98108.06;5052806;28;20205;-70
2022/07/30 00:08:30;;;;;;;5.73;4.40;;;;;;;18.77;82.40;98109.97;5053036;28;20209;-70
2022/07/30 00:10:58;;;;;;;7.00;4.80;;;;;;;18.79;81.91;98107.78;5053022;28;20611;-70
2022/07/30 00:13:24;;;;;;;5.27;4.87;;;;;;;18.79;82.34;98097.84;5052796;28;20743;-70
2022/07/30 00:15:51;;;;;;;9.00;5.10;;;;;;;18.78;82.54;98100.78;5052767;28;20292;-70
2022/07/30 00:18:17;;;;;;;7.77;4.50;;;;;;;18.73;82.88;98112.38;5052568;28;20778;-70
2022/07/30 00:20:44;;;;;;;5.50;4.80;;;;;;;18.73;82.97;98109.66;5053051;28;20213;-70
2022/07/30 00:23:10;;;;;;;4.80;4.43;;;;;;;18.78;82.52;98117.75;5052915;28;20209;-70
2022/07/30 00:25:37;;;;;;;6.50;5.30;;;;;;;18.81;82.53;98114.53;5052427;28;20296;-71
2022/07/30 00:28:04;;;;;;;7.57;4.90;;;;;;;18.79;82.46;98124.78;5052932;28;20197;-70
2022/07/30 00:30:30;;;;;;;4.80;4.37;;;;;;;18.86;81.73;98119.13;5052753;28;20229;-70
2022/07/30 00:32:57;;;;;;;5.30;4.33;;;;;;;18.81;82.20;98117.22;5052956;28;20212;-70
2022/07/30 00:35:23;;;;;;;7.37;4.80;;;;;;;18.81;82.04;98117.22;5053173;28;20205;-71
2022/07/30 00:37:49;;;;;;;7.60;4.57;;;;;;;18.79;82.45;98116.69;5053994;28;20225;-71
2022/07/30 00:40:16;;;;;;;5.67;3.83;;;;;;;18.77;82.82;98118.81;5056511;28;20328;-70
2022/07/30 00:42:47;;;;;;;4.50;4.10;;;;;;;18.80;82.60;98118.31;5055844;28;20243;-70
2022/07/30 00:45:15;;;;;;;6.30;4.23;;;;;;;18.82;81.83;98116.13;5056602;28;20190;-71
2022/07/30 00:47:43;;;;;;;5.33;4.10;;;;;;;18.87;81.03;98118.81;5057284;28;20209;-70
2022/07/30 00:50:12;;;;;;;4.83;3.80;;;;;;;18.85;80.99;98123.69;5056383;28;20252;-71
2022/07/30 00:52:39;;;;;;;4.10;3.70;;;;;;;18.91;79.60;98122.59;5056663;28;20308;-71
2022/07/30 00:55:12;;;;;;;4.00;3.60;;;;;;;18.87;80.09;98123.41;5056386;28;20291;-70
2022/07/30 00:57:39;;;;;;;3.63;3.30;;;;;;;18.90;80.38;98115.59;5056298;28;20353;-71
2022/07/30 01:00:08;;;;;;;3.70;3.40;;;;;;;18.94;79.47;98115.84;5055775;28;20622;-70
2022/07/30 01:02:35;;;;;;;3.67;3.37;;;;;;;18.94;78.81;98127.44;5056943;28;20719;-70
2022/07/30 01:05:02;;;;;;;4.37;3.33;;;;;;;19.01;78.23;98119.09;5055826;28;20573;-70
2022/07/30 01:07:29;;;;;;;4.03;3.50;;;;;;;19.09;77.51;98124.72;5056068;28;20224;-70
2022/07/30 01:09:56;;;;;;;3.93;3.57;;;;;;;19.05;78.14;98125.56;5056544;28;20281;-70
2022/07/30 01:12:25;;;;;;;4.37;3.47;;;;;;;19.02;78.18;98132.31;5055755;28;20209;-70
2022/07/30 01:14:52;;;;;;;5.17;3.53;;;;;;;19.06;77.46;98135.25;5055967;28;20295;-71
2022/07/30 01:17:20;;;;;;;4.27;3.90;;;;;;;19.12;77.41;98132.28;5055814;28;20304;-70
2022/07/30 01:19:50;;;;;;;4.23;3.50;;;;;;;19.13;76.76;98131.19;5055664;28;20231;-70
2022/07/30 01:22:39;;;;;;;3.50;3.20;;;;;;;19.11;76.13;98116.38;5055563;28;20304;-70
2022/07/30 01:25:11;;;;;;;3.87;3.43;;;;;;;19.02;77.52;98123.41;5047480;28;20209;-70
2022/07/30 01:27:50;;;;;;;3.30;3.10;;;;;;;18.98;78.64;98133.09;5055744;28;20231;-70
2022/07/30 01:30:21;;;;;;;3.63;3.37;;;;;;;18.96;78.43;98135.28;5037703;28;20233;-70
2022/07/30 01:32:49;;;;;;;4.67;3.70;;;;;;;18.93;78.43;98128.53;5055326;28;20364;-70
2022/07/30 01:35:18;;;;;;;3.93;3.63;;;;;;;18.89;78.82;98138.22;5037776;28;20219;-70
2022/07/30 01:37:47;;;;;;;3.60;3.30;;;;;;;18.87;78.64;98132.28;5037965;28;20220;-71
2022/07/30 01:40:14;;;;;;;5.20;3.67;;;;;;;18.81;79.23;98133.38;5055146;28;20739;-70
2022/07/30 01:42:42;;;;;;;4.27;3.40;;;;;;;18.80;79.51;98141.72;5055452;28;20291;-70
2022/07/30 01:45:11;;;;;;;4.00;3.60;;;;;;;18.73;79.07;98136.59;5055381;28;20676;-70
2022/07/30 01:47:40;;;;;;;3.67;3.37;;;;;;;18.65;79.23;98137.16;5055107;28;20554;-70
2022/07/30 01:50:12;;;;;;;4.47;3.77;;;;;;;18.74;78.46;98148.97;5054458;28;20260;-70
2022/07/30 01:52:41;;;;;;;4.23;3.23;;;;;;;18.75;77.60;98149.81;5054936;28;20636;-70
2022/07/30 01:55:12;;;;;;;3.47;3.17;;;;;;;18.77;77.45;98153.06;5055125;28;20220;-70
2022/07/30 01:57:40;;;;;;;3.53;3.23;;;;;;;18.65;78.42;98144.41;5054716;28;20189;-70
2022/07/30 02:00:08;;;;;;;4.07;3.30;;;;;;;18.64;78.01;98140.13;5054755;28;20230;-70
2022/07/30 02:02:37;;;;;;;4.10;2.93;;;;;;;18.58;78.48;98147.38;5054778;28;20220;-70
2022/07/30 02:05:05;;;;;;;3.83;3.53;;;;;;;18.52;78.76;98145.75;5055288;28;20296;-71
2022/07/30 02:07:40;;;;;;;4.37;3.43;;;;;;;18.42;79.79;98148.41;5037343;28;20217;-70
2022/07/30 02:10:35;;;;;;;3.80;3.00;;;;;;;18.35;80.27;98145.19;5054957;28;20247;-71
2022/07/30 02:13:06;;;;;;;3.73;3.20;;;;;;;18.40;79.09;98138.97;5052486;28;20205;-70
2022/07/30 02:15:45;;;;;;;4.27;3.30;;;;;;;18.42;79.18;98143.03;5054927;28;20189;-70
2022/07/30 02:18:43;;;;;;;4.93;3.23;;;;;;;18.35;79.17;98142.47;5054379;28;20687;-70
2022/07/30 02:21:12;;;;;;;5.70;3.60;;;;;;;18.45;78.63;98142.50;5054775;28;20280;-70
2022/07/30 02:23:43;;;;;;;3.67;3.00;;;;;;;18.42;77.83;98140.31;5054692;28;20447;-70
2022/07/30 02:26:15;;;;;;;2.90;2.70;;;;;;;18.33;78.51;98141.94;5054575;28;20703;-70
2022/07/30 02:28:44;;;;;;;2.70;2.50;;;;;;;18.32;78.63;98137.59;5054119;28;20700;-70
2022/07/30 02:31:12;;;;;;;3.17;2.87;;;;;;;18.29;78.70;98140.84;5054489;28;20205;-70
2022/07/30 02:33:44;;;;;;;4.07;3.10;;;;;;;18.23;79.53;98144.56;5054159;28;20224;-70
2022/07/30 02:36:11;;;;;;;3.27;2.97;;;;;;;18.14;79.38;98150.75;5054365;28;20236;-70
2022/07/30 02:38:40;;;;;;;3.07;2.87;;;;;;;18.17;78.90;98155.59;5053807;28;20771;-70
2022/07/30 02:41:09;;;;;;;4.90;2.90;;;;;;;18.12;78.79;98152.88;5054312;28;20210;-70
2022/07/30 02:43:39;;;;;;;3.57;2.87;;;;;;;18.10;79.08;98155.03;5054331;28;20297;-70
2022/07/30 02:46:07;;;;;;;3.57;3.10;;;;;;;18.04;79.79;98154.22;5054261;28;20263;-71
2022/07/30 02:48:34;;;;;;;3.27;3.00;;;;;;;18.05;78.98;98161.19;5053846;28;20217;-70
2022/07/30 02:51:04;;;;;;;3.30;3.00;;;;;;;18.17;78.40;98166.34;5054155;28;20209;-70
2022/07/30 02:53:31;;;;;;;3.47;3.07;;;;;;;18.28;76.54;98170.69;5036603;28;20237;-70
2022/07/30 02:56:00;;;;;;;4.27;3.30;;;;;;;18.26;77.35;98176.34;5054077;28;20215;-70
2022/07/30 02:58:28;;;;;;;3.37;3.07;;;;;;;18.13;78.55;98170.63;5053797;28;20232;-70
2022/07/30 03:00:56;;;;;;;4.20;3.07;;;;;;;18.15;78.14;98165.81;5053888;28;20292;-70
2022/07/30 03:03:27;;;;;;;4.53;2.70;;;;;;;17.98;78.80;98173.28;5053939;28;20304;-70
2022/07/30 03:05:55;;;;;;;3.30;3.10;;;;;;;17.87;79.38;98177.00;5054695;28;20196;-70
2022/07/30 03:08:22;;;;;;;3.93;2.80;;;;;;;17.88;79.95;98173.25;5035892;28;20690;-71
2022/07/30 03:10:50;;;;;;;3.40;3.10;;;;;;;17.81;79.86;98175.34;5053850;28;20248;-70
2022/07/30 03:13:19;;;;;;;3.17;2.97;;;;;;;17.84;79.82;98172.97;5053799;28;20284;-71
2022/07/30 03:15:48;;;;;;;4.10;3.30;;;;;;;17.76;80.32;98184.22;5053291;28;20200;-70
2022/07/30 03:18:17;;;;;;;4.30;3.90;;;;;;;17.94;76.76;98172.19;5035513;28;20231;-70
2022/07/30 03:20:50;;;;;;;4.93;3.43;;;;;;;17.80;78.41;98179.94;5053587;28;20227;-70
2022/07/30 03:23:18;;;;;;;3.67;3.17;;;;;;;17.88;77.37;98184.81;5053500;28;20592;-70
2022/07/30 03:25:49;;;;;;;4.00;3.47;;;;;;;17.96;76.45;98188.88;5036029;28;20227;-70
2022/07/30 03:28:16;;;;;;;4.57;3.07;;;;;;;17.89;76.84;98191.81;5053227;28;20715;-70
2022/07/30 03:30:43;;;;;;;4.40;3.23;;;;;;;17.83;76.76;98192.84;5035599;28;20576;-70
2022/07/30 03:33:12;;;;;;;3.80;3.10;;;;;;;17.73;77.30;98187.41;5053139;28;20683;-70
2022/07/30 03:35:39;;;;;;;4.73;3.30;;;;;;;17.66;77.40;98194.94;5053418;28;20205;-70
2022/07/30 03:38:07;;;;;;;4.20;3.13;;;;;;;17.72;76.72;98190.34;5052958;28;20672;-70
2022/07/30 03:40:34;;;;;;;3.50;3.20;;;;;;;17.68;76.72;98191.94;5035276;28;20731;-70
2022/07/30 03:43:00;;;;;;;4.17;3.30;;;;;;;17.59;77.12;98194.34;5052954;28;20702;-70
2022/07/30 03:45:27;;;;;;;3.33;3.03;;;;;;;17.68;76.88;98198.16;5052836;28;20208;-70
2022/07/30 03:47:55;;;;;;;4.50;3.30;;;;;;;17.78;75.43;98197.41;5035200;28;20294;-70
2022/07/30 03:50:22;;;;;;;4.20;3.23;;;;;;;17.80;75.02;98200.63;5053033;28;20221;-70
2022/07/30 03:52:49;;;;;;;4.50;3.70;;;;;;;17.72;75.66;98204.63;5053043;28;20205;-71
2022/07/30 03:55:16;;;;;;;4.23;3.70;;;;;;;17.77;74.97;98210.03;5052967;28;20209;-70
2022/07/30 03:57:43;;;;;;;4.97;3.50;;;;;;;17.75;75.11;98214.88;5053277;28;20209;-70
2022/07/30 04:00:15;;;;;;;4.93;3.60;;;;;;;17.63;76.23;98210.75;5052832;28;20696;-70
2022/07/30 04:02:45;;;;;;;3.70;3.10;;;;;;;17.68;75.61;98211.59;5053200;28;20205;-70
2022/07/30 04:05:13;;;;;;;3.50;3.07;;;;;;;17.60;76.02;98222.81;5052904;28;20608;-70
2022/07/30 04:07:40;;;;;;;4.80;3.73;;;;;;;17.71;75.39;98210.25;5053515;28;20205;-70
2022/07/30 04:10:07;;;;;;;5.13;3.73;;;;;;;17.75;75.42;98219.44;5052631;28;20312;-70
2022/07/30 04:12:33;;;;;;;6.07;3.80;;;;;;;17.64;75.62;98215.06;5054301;28;20299;-70
2022/07/30 04:15:00;;;;;;;4.13;3.27;;;;;;;17.65;76.22;98228.22;5056508;28;20208;-70
2022/07/30 04:17:47;;;;;;;4.27;3.40;;;;;;;17.60;76.79;98227.41;5056932;28;20622;-70
2022/07/30 04:20:20;;;;;;;5.43;3.33;;;;;;;17.61;77.15;98237.09;5039448;28;20323;-70
2022/07/30 04:22:47;;;;;;;3.70;3.40;;;;;;;17.55;77.80;98236.25;5056876;28;20277;-70
2022/07/30 04:25:14;;;;;;;3.87;3.30;;;;;;;17.50;77.74;98238.09;5056824;28;20205;-70
2022/07/30 04:27:41;;;;;;;3.13;2.90;;;;;;;17.52;77.92;98241.34;5056519;28;20766;-70
2022/07/30 04:30:08;;;;;;;5.73;3.50;;;;;;;17.48;77.84;98242.91;5056319;28;20799;-70
2022/07/30 04:32:36;;;;;;;5.03;3.40;;;;;;;17.62;76.57;98244.09;5056305;28;20694;-70
2022/07/30 04:35:03;;;;;;;7.20;4.20;;;;;;;17.60;77.80;98243.53;5056565;28;20213;-70
2022/07/30 04:37:29;;;;;;;4.77;3.70;;;;;;;17.59;77.16;98255.34;5056298;28;20572;-70
2022/07/30 04:39:56;;;;;;;4.20;3.40;;;;;;;17.59;77.53;98252.66;5056138;28;20225;-70
2022/07/30 04:42:25;;;;;;;3.87;3.57;;;;;;;17.58;77.80;98257.25;5056220;28;20669;-71
2022/07/30 04:44:52;;;;;;;6.30;3.50;;;;;;;17.70;76.53;98251.66;5056438;28;20663;-70
2022/07/30 04:47:19;;;;;;;4.67;3.40;;;;;;;17.69;76.21;98256.22;5056417;28;20342;-70
2022/07/30 04:49:47;;;;;;;3.20;3.00;;;;;;;17.78;76.41;98265.44;5056098;28;20221;-70
2022/07/30 04:52:16;;;;;;;3.90;3.30;;;;;;;17.78;77.18;98262.75;5038696;28;20216;-70
2022/07/30 04:54:59;;;;;;;4.53;3.70;;;;;;;17.86;75.99;98256.88;5055850;28;20243;-70
2022/07/30 04:57:27;;;;;;;4.17;3.63;;;;;;;18.00;73.70;98260.72;5056260;28;20187;-70
2022/07/30 04:59:54;;;;;;;4.13;3.40;;;;;;;18.11;72.77;98267.78;5055659;28;20260;-70
2022/07/30 05:02:23;;;;;;;8.07;3.37;;;;;;;18.24;72.80;98261.91;5055725;28;20205;-70
2022/07/30 05:04:50;;;;;;;4.47;3.40;;;;;;;18.50;70.31;98271.75;5056019;28;20205;-70
2022/07/30 05:07:19;;;;;;;6.70;3.50;;;;;;;19.17;67.65;98269.75;5055905;28;20212;-70
2022/07/30 05:09:45;;;;;;;4.20;3.17;;;;;;;19.81;64.03;98261.13;5055862;28;20232;-70
2022/07/30 05:12:11;;;;;;;3.37;2.83;;;;;;;20.56;60.89;98252.78;5055964;28;20209;-71
2022/07/30 05:14:38;;;;;;;5.63;3.33;;;;;;;21.34;59.09;98263.38;5055862;28;20292;-70
2022/07/30 05:17:05;;;;;;;3.90;3.00;;;;;;;21.58;58.25;98263.47;5055851;28;20202;-70
2022/07/30 05:19:31;;;;;;;7.00;3.53;;;;;;;21.48;58.49;98267.03;5055572;28;20233;-70
2022/07/30 05:21:58;;;;;;;6.63;3.63;;;;;;;21.49;56.96;98271.41;5055681;28;20203;-70
2022/07/30 05:24:24;;;;;;;4.20;3.22;;;;;;;21.28;57.53;98275.34;5054321;28;20690;-70
2022/07/30 05:26:51;;;;;;;5.97;3.60;;;;;;;20.75;59.41;98283.50;5055766;28;20205;-71
2022/07/30 05:29:17;;;;;;;4.40;3.30;;;;;;;20.32;60.40;98273.41;5055351;28;20315;-70
2022/07/30 05:31:44;;;;;;;7.60;4.03;;;;;;;20.22;61.13;98268.06;5055471;28;20289;-70
2022/07/30 05:34:10;;;;;;;6.53;3.93;;;;;;;20.03;61.50;98273.19;5055410;28;20208;-71
2022/07/30 05:36:37;;;;;;;4.33;3.63;;;;;;;20.06;62.57;98269.97;5055460;28;20288;-70
2022/07/30 05:39:04;;;;;;;5.33;3.70;;;;;;;19.95;62.17;98273.78;5054971;28;20229;-70
2022/07/30 05:41:30;;;;;;;6.97;4.00;;;;;;;20.10;61.58;98272.94;5055259;28;20240;-70
2022/07/30 05:43:57;;;;;;;5.47;3.50;;;;;;;20.18;62.16;98275.09;5054879;28;20301;-70
2022/07/30 05:46:23;;;;;;;7.67;4.70;;;;;;;20.24;61.10;98271.28;5055206;28;20220;-70
2022/07/30 05:48:50;;;;;;;5.40;3.37;;;;;;;20.26;61.69;98279.94;5055801;28;20312;-70
2022/07/30 05:51:18;;;;;;;3.90;3.60;;;;;;;20.18;61.04;98273.19;5055001;28;20671;-70
2022/07/30 05:53:44;;;;;;;5.53;3.33;;;;;;;20.35;60.65;98272.88;5055122;28;20209;-70
2022/07/30 05:56:11;;;;;;;5.20;3.50;;;;;;;20.29;61.21;98280.19;5055003;28;20240;-70
2022/07/30 05:58:37;;;;;;;4.80;3.67;;;;;;;20.39;60.96;98273.94;5054927;28;20236;-70
2022/07/30 06:01:04;;;;;;;5.83;3.97;;;;;;;20.52;60.33;98284.16;5055037;28;20211;-70
2022/07/30 06:03:30;;;;;;;7.10;3.80;;;;;;;20.55;59.63;98281.69;5054944;28;20205;-70
2022/07/30 06:05:57;;;;;;;6.50;3.80;;;;;;;20.60;59.35;98281.66;5054814;28;20722;-70
2022/07/30 06:08:23;;;;;;;5.97;3.60;;;;;;;20.65;59.15;98283.53;5054801;28;20212;-70
2022/07/30 06:10:49;;;;;;;5.43;3.87;;;;;;;20.71;58.67;98279.72;5054522;28;20660;-70
2022/07/30 06:13:16;;;;;;;4.77;3.20;;;;;;;20.94;58.84;98285.28;5055332;28;20296;-70
2022/07/30 06:15:42;;;;;;;5.90;3.87;;;;;;;20.87;58.00;98282.06;5054827;28;20205;-70
2022/07/30 06:18:09;;;;;;;4.47;3.67;;;;;;;20.89;57.23;98292.59;5055056;28;20216;-70
2022/07/30 06:20:35;;;;;;;5.67;3.63;;;;;;;20.92;57.70;98297.47;5054319;28;20282;-70
2022/07/30 06:23:07;;;;;;;5.93;3.43;;;;;;;21.07;57.35;98300.09;5054162;28;20213;-70
2022/07/30 06:25:33;;;;;;;6.57;4.10;;;;;;;21.07;57.01;98295.47;5053725;28;20186;-70
2022/07/30 06:28:00;;;;;;;3.70;3.40;;;;;;;21.15;57.05;98299.47;5054335;28;20212;-71
2022/07/30 06:30:27;;;;;;;4.30;3.87;;;;;;;21.19;56.57;98295.13;5054025;28;20319;-70
2022/07/30 06:32:54;;;;;;;3.53;3.20;;;;;;;21.39;56.71;98290.38;5054373;28;20205;-70
2022/07/30 06:35:20;;;;;;;3.47;3.17;;;;;;;21.32;55.46;98300.72;5053640;28;20651;-70
2022/07/30 06:37:47;;;;;;;4.57;3.47;;;;;;;21.38;55.42;98302.31;5053790;28;20731;-70
2022/07/30 06:40:13;;;;;;;5.10;3.50;;;;;;;21.42;55.08;98294.41;5053723;28;20317;-70
2022/07/30 06:42:40;;;;;;;4.30;3.27;;;;;;;21.49;54.84;98298.44;5054438;28;20253;-70
2022/07/30 06:45:07;;;;;;;7.93;3.20;;;;;;;21.71;54.92;98295.31;5054141;28;20290;-71
2022/07/30 06:47:33;;;;;;;4.87;3.37;;;;;;;21.70;53.99;98291.78;5054008;28;20205;-70
2022/07/30 06:50:01;;;;;;;6.30;3.40;;;;;;;21.67;54.33;98299.66;5054631;28;20225;-71
2022/07/30 06:52:27;;;;;;;5.97;3.70;;;;;;;21.64;53.47;98294.78;5053946;28;20300;-71
2022/07/30 06:54:54;;;;;;;6.93;3.80;;;;;;;21.62;53.27;98302.38;5053551;28;20571;-70
2022/07/30 06:57:20;;;;;;;5.10;4.00;;;;;;;21.71;53.25;98303.44;5053827;28;20209;-70
2022/07/30 06:59:47;;;;;;;6.07;4.40;;;;;;;21.54;53.83;98308.41;5053759;28;20253;-71
2022/07/30 07:02:13;;;;;;;8.17;3.93;;;;;;;21.57;53.78;98315.97;5053726;28;20211;-71
2022/07/30 07:04:39;;;;;;;4.73;3.70;;;;;;;21.57;54.16;98311.34;5053539;28;20300;-70
2022/07/30 07:07:06;;;;;;;7.63;3.73;;;;;;;21.77;54.16;98307.69;5053114;28;20292;-70
2022/07/30 07:09:32;;;;;;;7.90;3.97;;;;;;;22.05;53.69;98304.16;5053510;28;20311;-70
2022/07/30 07:11:59;;;;;;;4.60;3.17;;;;;;;22.17;53.15;98312.72;5053421;28;20291;-70
2022/07/30 07:14:25;;;;;;;4.50;3.40;;;;;;;22.26;53.02;98311.00;5053716;28;20201;-70
2022/07/30 07:16:52;;;;;;;7.03;4.00;;;;;;;22.02;52.78;98313.69;5053718;28;20208;-71
2022/07/30 07:19:18;;;;;;;7.20;3.80;;;;;;;22.06;53.81;98305.81;5053068;28;20231;-70
2022/07/30 07:21:45;;;;;;;5.90;4.20;;;;;;;22.12;52.53;98315.50;5053346;28;20232;-71
2022/07/30 07:24:11;;;;;;;6.73;4.10;;;;;;;22.43;52.82;98311.34;5053754;28;20209;-71
2022/07/30 07:26:37;;;;;;;7.23;4.93;;;;;;;22.46;52.32;98310.78;5053723;28;20209;-70
2022/07/30 07:29:04;;;;;;;5.93;4.28;;;;;;;22.74;50.65;98318.06;5053245;28;20324;-70
2022/07/30 07:31:30;;;;;;;8.18;4.97;;;;;;;22.67;50.97;98314.88;5053311;28;20291;-70
2022/07/30 07:33:57;;;;;;;7.23;5.10;;;;;;;22.64;50.86;98312.75;5053265;28;20205;-70
2022/07/30 07:36:23;;;;;;;4.90;4.10;;;;;;;22.43;51.34;98316.78;5052805;28;20608;-70
2022/07/30 07:38:50;;;;;;;5.32;3.75;;;;;;;22.57;51.67;98325.84;5052601;28;20231;-70
2022/07/30 07:41:17;;;;;;;5.07;3.60;;;;;;;22.82;50.39;98322.81;5052643;28;20315;-70
2022/07/30 07:43:43;;;;;;;5.30;3.97;;;;;;;22.78;50.52;98322.59;5053205;28;20215;-70
2022/07/30 07:46:11;;;;;;;5.30;4.05;;;;;;;22.77;50.75;98322.88;5053346;28;20209;-71
2022/07/30 07:48:38;;;;;;;6.28;3.70;;;;;;;22.68;50.34;98322.72;5052391;28;20235;-70
2022/07/30 07:51:04;;;;;;;5.85;3.33;;;;;;;22.87;51.13;98318.16;5052810;28;20300;-70
2022/07/30 07:53:31;;;;;;;4.63;3.78;;;;;;;22.88;48.77;98329.81;5053048;28;20312;-71
2022/07/30 07:55:58;;;;;;;4.32;3.67;;;;;;;23.03;49.01;98324.16;5052674;28;20208;-71
2022/07/30 07:58:24;;;;;;;4.65;3.40;;;;;;;23.12;48.98;98330.56;5052499;28;20205;-70
2022/07/30 08:00:51;;;;;;;4.68;3.58;;;;;;;23.01;49.55;98319.03;5052785;28;20231;-70
2022/07/30 08:03:17;;;;;;;5.32;3.13;;;;;;;23.30;48.02;98325.19;5053187;28;20592;-70
2022/07/30 08:05:44;;;;;;;3.63;3.33;;;;;;;23.26;47.55;98318.72;5052845;28;20300;-70
2022/07/30 08:08:10;;;;;;;4.53;3.00;;;;;;;23.41;47.29;98323.91;5053466;28;20624;-70
2022/07/30 08:10:37;;;;;;;4.32;3.15;;;;;;;23.45;47.50;98321.41;5052409;28;20537;-70
2022/07/30 08:13:04;;;;;;;4.57;3.35;;;;;;;23.11;47.17;98324.31;5052913;28;20296;-70
2022/07/30 08:15:30;;;;;;;5.30;3.10;;;;;;;23.16;47.11;98321.53;5052517;28;20205;-71
2022/07/30 08:17:57;;;;;;;4.90;3.17;;;;;;;23.38;45.95;98318.28;5052353;28;20212;-70
2022/07/30 08:20:24;;;;;;;6.25;3.03;;;;;;;23.47;45.37;98321.94;5052350;28;20260;-70
2022/07/30 08:22:50;;;;;;;5.90;2.55;;;;;;;23.86;44.99;98330.50;5052314;28;20205;-71
2022/07/30 08:25:18;;;;;;;4.15;2.95;;;;;;;23.58;45.71;98321.47;5052773;28;20296;-71
2022/07/30 08:27:45;;;;;;;4.72;2.92;;;;;;;23.62;46.35;98319.78;5052589;28;20206;-70
2022/07/30 08:30:12;;;;;;;7.70;3.05;;;;;;;23.41;45.52;98318.47;5052067;28;20599;-70
2022/07/30 08:32:38;;;;;;;5.22;2.60;;;;;;;23.49;46.42;98322.44;5052624;28;20205;-70
2022/07/30 08:35:05;;;;;;;3.13;2.65;;;;;;;23.59;46.17;98322.25;5052364;28;20735;-70
2022/07/30 08:37:32;;;;;;;4.45;2.90;;;;;;;23.70;44.76;98318.28;5053437;28;20556;-70
2022/07/30 08:39:58;;;;;;;4.75;2.90;;;;;;;23.72;45.14;98325.03;5052428;28;20229;-70
2022/07/30 08:42:27;;;;;;;5.68;3.17;;;;;;;23.91;44.10;98325.00;5052561;28;20581;-71
2022/07/30 08:44:54;;;;;;;6.00;3.20;;;;;;;23.70;44.86;98323.72;5052298;28;20209;-70
2022/07/30 08:47:28;;;;;;;4.13;2.50;;;;;;;24.08;44.99;98323.34;5052149;28;20213;-70
2022/07/30 08:50:00;;;;;;;3.78;2.38;;;;;;;24.20;44.38;98325.59;5052627;28;20233;-70
2022/07/30 08:52:27;;;;;;;4.13;2.70;;;;;;;24.23;43.89;98317.63;5035441;28;20324;-70
2022/07/30 08:54:55;;;;;;;4.00;2.55;;;;;;;23.97;42.54;98323.84;5051866;28;20575;-71
2022/07/30 08:57:22;;;;;;;4.10;2.97;;;;;;;23.91;42.19;98336.69;5052586;28;20300;-70
2022/07/30 08:59:50;;;;;;;4.47;2.90;;;;;;;23.88;42.63;98326.38;5054922;28;20415;-70
2022/07/30 09:02:16;;;;;;;3.88;2.45;;;;;;;24.14;42.29;98329.47;5055958;28;20201;-70
2022/07/30 09:04:43;;;;;;;3.10;2.78;;;;;;;24.12;42.05;98324.38;5056013;28;20236;-70
2022/07/30 09:07:09;;;;;;;3.75;2.63;;;;;;;23.82;41.64;98324.06;5055928;28;20855;-70
2022/07/30 09:09:36;;;;;;;4.78;3.03;;;;;;;23.65;42.20;98334.66;5055827;28;20232;-70
2022/07/30 09:12:02;;;;;;;5.82;3.15;;;;;;;23.62;42.58;98336.06;5055619;28;20315;-70
2022/07/30 09:14:28;;;;;;;3.33;2.80;;;;;;;24.06;42.69;98324.75;5055568;28;20213;-71
2022/07/30 09:16:58;;;;;;;6.10;2.53;;;;;;;23.84;42.12;98330.78;5055677;28;20300;-70
2022/07/30 09:19:25;;;;;;;5.13;3.22;;;;;;;24.08;42.16;98320.66;5055303;28;20225;-71
2022/07/30 09:22:00;;;;;;;5.72;3.30;;;;;;;24.26;41.71;98322.47;5054939;28;20232;-71
2022/07/30 09:24:28;;;;;;;3.47;2.50;;;;;;;24.76;40.75;98323.41;5055289;28;20208;-70
2022/07/30 09:27:00;;;;;;;4.97;2.75;;;;;;;24.66;40.76;98320.91;5054894;28;20211;-70
2022/07/30 09:29:30;;;;;;;2.92;2.25;;;;;;;24.54;40.85;98320.56;5054897;28;20615;-71
2022/07/30 09:32:02;;;;;;;5.47;2.47;;;;;;;24.69;40.95;98325.75;5055321;28;20185;-71
2022/07/30 09:34:37;;;;;;;4.07;2.70;;;;;;;24.83;40.35;98321.09;5055137;28;20205;-71
2022/07/30 09:37:25;;;;;;;4.18;2.80;;;;;;;24.83;40.33;98327.34;5055229;28;20211;-70
2022/07/30 09:39:51;;;;;;;5.03;3.05;;;;;;;24.14;42.55;98314.00;5054819;28;20299;-70
2022/07/30 09:42:23;;;;;;;4.63;2.65;;;;;;;24.42;42.56;98325.72;5055119;28;20295;-71
2022/07/30 09:44:50;;;;;;;5.25;2.70;;;;;;;24.46;39.34;98313.94;5054927;28;20185;-70
2022/07/30 09:47:37;;;;;;;4.25;2.40;;;;;;;24.50;40.33;98322.28;5054802;28;20205;-70
2022/07/30 09:50:08;;;;;;;3.13;2.30;;;;;;;25.01;39.96;98312.00;5054998;28;20231;-70
2022/07/30 09:52:35;;;;;;;3.72;2.60;;;;;;;25.08;38.94;98315.09;5054123;28;20660;-70
2022/07/30 09:55:02;;;;;;;5.65;2.42;;;;;;;24.29;39.40;98312.91;5054730;28;20345;-70
2022/07/30 09:57:28;;;;;;;3.97;2.10;;;;;;;24.82;38.87;98320.28;5054569;28;20292;-70
2022/07/30 10:00:15;;;;;;;2.10;1.90;;;;;;;24.67;38.23;98320.59;5054114;28;20585;-70
2022/07/30 10:02:41;;;;;;;5.13;2.00;;;;;;;25.06;38.16;98315.41;5054620;28;20273;-71
2022/07/30 10:05:13;;;;;;;3.50;2.30;;;;;;;25.01;38.24;98322.88;5054739;28;20250;-70
2022/07/30 10:07:39;;;;;;;2.67;2.10;;;;;;;25.08;37.54;98325.97;5054719;28;20300;-70
2022/07/30 10:10:06;;;;;;;4.00;2.15;;;;;;;25.07;37.29;98318.94;5053563;28;20790;-70
2022/07/30 10:12:34;;;;;;;3.33;1.80;;;;;;;25.35;38.28;98323.22;5054236;28;20323;-70
2022/07/30 10:15:01;;;;;;;3.47;2.17;;;;;;;24.88;37.80;98321.78;5054129;28;20572;-69
2022/07/30 10:17:31;;;;;;;5.00;2.10;;;;;;;24.63;38.06;98318.78;5054491;28;20240;-70
2022/07/30 10:19:58;;;;;;;4.72;1.80;;;;;;;25.01;38.91;98312.00;5054114;28;20315;-70
2022/07/30 10:22:24;;;;;;;3.65;2.00;;;;;;;25.07;37.55;98313.50;5053842;28;20261;-70
2022/07/30 10:24:51;;;;;;;5.07;2.10;;;;;;;25.38;37.47;98311.72;5036417;28;20690;-70
2022/07/30 10:27:19;;;;;;;2.30;1.98;;;;;;;25.79;36.96;98302.25;5054129;28;20227;-70
2022/07/30 10:29:45;;;;;;;2.35;2.13;;;;;;;25.12;37.93;98300.59;5053851;28;20233;-70
2022/07/30 10:32:13;;;;;;;2.17;1.88;;;;;;;25.26;39.53;98305.97;5053953;28;20296;-69
2022/07/30 10:34:40;;;;;;;4.05;2.42;;;;;;;24.92;38.03;98305.69;5054043;28;20299;-70
2022/07/30 10:37:07;;;;;;;3.53;2.15;;;;;;;25.40;37.53;98306.78;5054102;28;20229;-70
2022/07/30 10:39:47;;;;;;;3.55;1.85;;;;;;;25.52;36.80;98305.13;5053620;28;20233;-69
2022/07/30 10:42:14;;;;;;;2.03;1.83;;;;;;;25.60;36.92;98312.53;5053798;28;20212;-69
2022/07/30 10:45:04;;;;;;;5.78;2.15;;;;;;;25.07;36.36;98311.59;5054062;28;20262;-69
2022/07/30 10:47:32;;;;;;;3.75;2.08;;;;;;;24.78;37.18;98304.91;5053906;28;20277;-70
2022/07/30 10:50:10;;;;;;;4.13;2.08;;;;;;;25.37;37.77;98302.75;5053610;28;20221;-70
2022/07/30 10:52:53;;;;;;;2.88;2.13;;;;;;;25.19;37.84;98303.69;5053251;28;20193;-69
2022/07/30 10:55:24;;;;;;;2.08;1.90;;;;;;;25.68;37.39;98294.66;5053224;28;20221;-70
2022/07/30 10:58:11;;;;;;;4.10;2.00;;;;;;;25.85;36.59;98298.31;5053417;28;20185;-70
2022/07/30 11:00:53;;;;;;;3.13;2.10;;;;;;;25.89;35.87;98295.75;5053660;28;20225;-70
2022/07/30 11:03:25;;;;;;;4.05;2.15;;;;;;;25.84;36.05;98291.25;5053766;28;20201;-70
2022/07/30 11:06:12;;;;;;;3.38;1.83;;;;;;;25.74;37.02;98296.16;5053665;28;20255;-70
2022/07/30 11:08:40;;;;;;;4.10;2.40;;;;;;;25.56;37.34;98288.97;5053107;28;20229;-70
2022/07/30 11:11:21;;;;;;;3.05;2.40;;;;;;;25.35;37.85;98301.44;5053064;28;20668;-70
2022/07/30 11:13:56;;;;;;;6.85;2.42;;;;;;;25.31;38.05;98303.19;5053508;28;20628;-70
2022/07/30 11:16:31;;;;;;;4.88;2.17;;;;;;;25.12;38.20;98300.59;5053474;28;20602;-70
2022/07/30 11:19:10;;;;;;;2.67;2.17;;;;;;;25.12;38.05;98300.59;5053111;28;20307;-70
2022/07/30 11:21:38;;;;;;;3.28;2.10;;;;;;;25.56;37.81;98294.41;5053668;28;20308;-70
2022/07/30 11:24:05;;;;;;;5.07;2.10;;;;;;;25.45;36.75;98295.75;5053577;28;20209;-69
2022/07/30 11:26:40;;;;;;;1.80;1.65;;;;;;;25.95;36.24;98292.63;5050209;28;20292;-70
2022/07/30 11:29:07;;;;;;;4.05;2.10;;;;;;;26.03;35.54;98282.88;5050821;28;20722;-69
2022/07/30 11:31:36;;;;;;;2.63;1.70;;;;;;;25.48;35.11;98286.97;5050303;28;20201;-70
2022/07/30 11:34:18;;;;;;;3.35;1.63;;;;;;;25.95;34.86;98286.34;5051023;28;20240;-71
2022/07/30 11:37:04;;;;;;;5.88;1.75;;;;;;;25.62;35.43;98287.72;5049406;28;20216;-71
2022/07/30 11:39:55;;;;;;;3.60;1.90;;;;;;;26.19;35.80;98276.69;5050823;28;20220;-71
2022/07/30 11:42:29;;;;;;;3.95;2.13;;;;;;;26.42;33.81;98277.44;5047881;28;20232;-70